createdAt,value
2023-04-30T00:00:38.161Z,97518.22
2023-04-30T00:03:06.409Z,97529.69
2023-04-30T00:05:34.744Z,97525.19
2023-04-30T00:08:02.851Z,97519.31
2023-04-30T00:10:31.131Z,97468.00
2023-04-30T00:12:59.833Z,97528.81
2023-04-30T00:15:29.410Z,97533.25
2023-04-30T00:17:57.641Z,97508.69
2023-04-30T00:20:25.932Z,97537.78
2023-04-30T00:22:54.139Z,97524.88
2023-04-30T00:25:24.659Z,97546.50
2023-04-30T00:27:52.832Z,97527.41
2023-04-30T00:30:20.999Z,97541.88
2023-04-30T00:32:50.565Z,97527.19
2023-04-30T00:35:18.856Z,97511.75
2023-04-30T00:37:47.812Z,97534.91
2023-04-30T00:40:16.802Z,97535.56
2023-04-30T00:42:45.024Z,97538.50
2023-04-30T00:45:13.296Z,97538.88
2023-04-30T00:47:42.249Z,97533.69
2023-04-30T00:50:16.028Z,97528.91
2023-04-30T00:52:44.748Z,97530.84
2023-04-30T00:55:13.731Z,97519.97
2023-04-30T00:57:42.175Z,97521.31
2023-04-30T01:00:11.754Z,97497.97
2023-04-30T01:02:40.032Z,97529.34
2023-04-30T01:05:09.306Z,97515.63
2023-04-30T01:07:44.878Z,97521.81
2023-04-30T01:10:14.068Z,97501.47
2023-04-30T01:12:49.299Z,97489.47
2023-04-30T01:15:34.710Z,97530.47
2023-04-30T01:18:09.351Z,97501.47
2023-04-30T01:20:45.168Z,97543.28
2023-04-30T01:23:28.888Z,97530.59
2023-04-30T01:26:12.292Z,97533.97
2023-04-30T01:28:45.037Z,97482.72
2023-04-30T01:31:14.999Z,97542.06
2023-04-30T01:33:43.463Z,97541.06
2023-04-30T01:36:36.928Z,97545.53
2023-04-30T01:39:21.271Z,97491.56
2023-04-30T01:41:59.267Z,97544.81
2023-04-30T01:44:55.464Z,97557.16
2023-04-30T01:47:35.187Z,97554.66
2023-04-30T01:50:25.644Z,97179.47
2023-04-30T01:52:55.115Z,97556.44
2023-04-30T01:55:28.829Z,97558.34
2023-04-30T01:57:59.758Z,97487.34
2023-04-30T02:00:30.801Z,97545.81
2023-04-30T02:02:59.521Z,97563.13
2023-04-30T02:05:27.832Z,97544.44
2023-04-30T02:07:56.492Z,97562.66
2023-04-30T02:10:26.591Z,97561.91
2023-04-30T02:12:55.246Z,97565.44
2023-04-30T02:15:23.493Z,97482.16
2023-04-30T02:17:53.205Z,97562.81
2023-04-30T02:20:21.632Z,97567.25
2023-04-30T02:22:49.815Z,97401.72
2023-04-30T02:25:18.276Z,97572.69
2023-04-30T02:27:46.409Z,97553.88
2023-04-30T02:30:14.543Z,97586.00
2023-04-30T02:32:42.869Z,97585.09
2023-04-30T02:35:12.520Z,97569.41
2023-04-30T02:37:40.664Z,97559.31
2023-04-30T02:40:10.691Z,97554.72
2023-04-30T02:42:38.872Z,97548.84
2023-04-30T02:45:08.245Z,97563.84
2023-04-30T02:47:36.576Z,97594.47
2023-04-30T02:50:05.587Z,97600.91
2023-04-30T02:52:35.192Z,97589.84
2023-04-30T02:55:04.047Z,97582.63
2023-04-30T02:57:32.215Z,97549.41
2023-04-30T03:00:00.609Z,97602.91
2023-04-30T03:02:28.822Z,97601.00
2023-04-30T03:04:56.993Z,97599.59
2023-04-30T03:07:25.192Z,97606.91
2023-04-30T03:09:55.053Z,97611.94
2023-04-30T03:12:23.417Z,97611.66
2023-04-30T03:14:52.376Z,97586.84
2023-04-30T03:17:20.597Z,97616.34
2023-04-30T03:19:48.817Z,97596.66
2023-04-30T03:22:19.536Z,97616.59
2023-04-30T03:24:47.864Z,97619.09
2023-04-30T03:27:18.088Z,97621.66
2023-04-30T03:29:46.278Z,97626.22
2023-04-30T03:32:14.407Z,97633.19
2023-04-30T03:34:42.556Z,97630.50
2023-04-30T03:37:10.742Z,97634.38
2023-04-30T03:39:38.830Z,97582.13
2023-04-30T03:42:06.928Z,97614.34
2023-04-30T03:44:36.461Z,97623.78
2023-04-30T03:47:04.601Z,97621.66
2023-04-30T03:49:32.995Z,97486.94
2023-04-30T03:52:01.224Z,97598.59
2023-04-30T03:54:29.620Z,97592.31
2023-04-30T03:56:58.043Z,97621.88
2023-04-30T03:59:26.758Z,97613.41
2023-04-30T04:01:56.364Z,97627.13
2023-04-30T04:04:24.643Z,97574.50
2023-04-30T04:06:52.821Z,97614.00
2023-04-30T04:09:21.239Z,97618.09
2023-04-30T04:11:49.454Z,97615.41
2023-04-30T04:14:17.806Z,97630.91
2023-04-30T04:16:46.822Z,97636.81
2023-04-30T04:19:16.351Z,97637.06
2023-04-30T04:21:44.532Z,97641.69
2023-04-30T04:24:12.939Z,97649.47
2023-04-30T04:26:41.528Z,97650.41
2023-04-30T04:29:10.074Z,97649.81
2023-04-30T04:31:38.790Z,97563.25
2023-04-30T04:34:07.130Z,97645.41
2023-04-30T04:36:36.750Z,97659.19
2023-04-30T04:39:05.233Z,97590.59
2023-04-30T04:41:35.247Z,97654.44
2023-04-30T04:44:03.863Z,97654.22
2023-04-30T04:46:33.213Z,97611.06
2023-04-30T04:49:01.619Z,97659.75
2023-04-30T04:51:29.793Z,97666.13
2023-04-30T04:53:59.423Z,97675.78
2023-04-30T04:56:27.598Z,97666.69
2023-04-30T04:58:55.766Z,97676.34
2023-04-30T05:01:23.937Z,97684.16
2023-04-30T05:03:53.902Z,97678.59
2023-04-30T05:06:22.308Z,97686.19
2023-04-30T05:08:50.494Z,97685.16
2023-04-30T05:11:20.143Z,97671.13
2023-04-30T05:16:17.436Z,97671.78
2023-04-30T05:18:45.770Z,97653.09
2023-04-30T05:21:13.980Z,97673.59
2023-04-30T05:23:42.298Z,97685.44
2023-04-30T05:26:10.521Z,97661.38
2023-04-30T05:28:40.589Z,97700.09
2023-04-30T05:31:08.870Z,97697.31
2023-04-30T05:33:38.036Z,97709.25
2023-04-30T05:36:06.931Z,97677.47
2023-04-30T05:38:35.280Z,97704.00
2023-04-30T05:41:03.689Z,97707.97
2023-04-30T05:43:31.898Z,97706.19
2023-04-30T05:46:01.561Z,97676.28
2023-04-30T05:48:29.754Z,97701.38
2023-04-30T05:50:57.994Z,97710.88
2023-04-30T05:53:26.311Z,97712.28
2023-04-30T05:55:54.577Z,97695.94
2023-04-30T05:58:22.759Z,97704.72
2023-04-30T06:00:52.121Z,97704.25
2023-04-30T06:03:22.120Z,97694.72
2023-04-30T06:05:50.296Z,97707.69
2023-04-30T06:08:18.653Z,97708.53
2023-04-30T06:10:46.972Z,97694.78
2023-04-30T06:13:15.617Z,97713.84
2023-04-30T06:15:43.889Z,97713.66
2023-04-30T06:18:14.474Z,97715.81
2023-04-30T06:20:44.106Z,97661.03
2023-04-30T06:23:12.305Z,97705.00
2023-04-30T06:25:40.846Z,97726.31
2023-04-30T06:28:10.146Z,97710.22
2023-04-30T06:30:38.651Z,97709.09
2023-04-30T06:33:06.894Z,97730.19
2023-04-30T06:35:35.591Z,97724.97
2023-04-30T06:38:05.389Z,97733.28
2023-04-30T06:40:33.722Z,97704.09
2023-04-30T06:43:01.898Z,97737.50
2023-04-30T06:45:30.150Z,97725.69
2023-04-30T06:47:59.699Z,97740.53
2023-04-30T06:50:27.940Z,97742.06
2023-04-30T06:52:56.166Z,97751.38
2023-04-30T06:55:26.587Z,97769.31
2023-04-30T06:57:55.030Z,97739.09
2023-04-30T07:00:23.334Z,97738.16
2023-04-30T07:02:52.238Z,97689.50
2023-04-30T07:05:20.674Z,97750.00
2023-04-30T07:07:49.371Z,97738.34
2023-04-30T07:10:18.168Z,97738.66
2023-04-30T07:12:47.802Z,97734.41
2023-04-30T07:15:16.168Z,97718.47
2023-04-30T07:17:44.459Z,97714.19
2023-04-30T07:20:14.866Z,97735.09
2023-04-30T07:22:44.650Z,97745.09
2023-04-30T07:25:12.974Z,97674.03
2023-04-30T07:27:41.469Z,97712.22
2023-04-30T07:30:11.472Z,97727.31
2023-04-30T07:32:41.328Z,97709.00
2023-04-30T07:35:10.318Z,97737.84
2023-04-30T07:37:40.474Z,97631.06
2023-04-30T07:40:15.206Z,97474.81
2023-04-30T07:42:46.349Z,97741.03
2023-04-30T07:45:16.006Z,97741.13
2023-04-30T07:47:44.641Z,97742.34
2023-04-30T07:50:15.067Z,97729.44
2023-04-30T07:58:02.569Z,97156.53
2023-04-30T08:03:07.581Z,97527.91
2023-04-30T08:05:35.897Z,97766.66
2023-04-30T08:08:04.117Z,97702.09
2023-04-30T08:10:32.643Z,97619.47
2023-04-30T08:13:00.939Z,97739.22
2023-04-30T08:15:29.552Z,97754.31
2023-04-30T08:17:58.849Z,97741.66
2023-04-30T08:20:28.628Z,97756.50
2023-04-30T08:22:56.851Z,97756.97
2023-04-30T08:25:25.169Z,97662.56
2023-04-30T08:27:53.378Z,97766.94
2023-04-30T08:30:21.637Z,97744.59
2023-04-30T08:32:51.106Z,97723.34
2023-04-30T08:35:19.696Z,97766.88
2023-04-30T08:37:49.502Z,97778.31
2023-04-30T08:40:17.871Z,97776.03
2023-04-30T08:42:51.646Z,97772.16
2023-04-30T08:45:20.655Z,97761.63
2023-04-30T08:47:50.761Z,97770.78
2023-04-30T08:50:19.528Z,97745.50
2023-04-30T08:52:50.060Z,97713.91
2023-04-30T08:55:18.308Z,97758.59
2023-04-30T08:57:46.676Z,97775.53
2023-04-30T09:00:15.771Z,97765.53
2023-04-30T09:02:44.926Z,97751.56
2023-04-30T09:05:14.347Z,97768.72
2023-04-30T09:07:51.975Z,97774.34
2023-04-30T09:10:34.112Z,97762.00
2023-04-30T09:13:03.887Z,97777.19
2023-04-30T09:15:33.160Z,97762.59
2023-04-30T09:18:10.181Z,97777.31
2023-04-30T09:20:38.772Z,97776.88
2023-04-30T09:23:08.867Z,97791.81
2023-04-30T09:25:42.693Z,97783.56
2023-04-30T09:28:12.049Z,97764.72
2023-04-30T09:30:40.961Z,97650.50
2023-04-30T09:33:11.994Z,97709.19
2023-04-30T09:35:42.186Z,97771.56
2023-04-30T09:38:27.399Z,97769.59
2023-04-30T09:40:59.441Z,97730.88
2023-04-30T09:43:27.928Z,97763.88
2023-04-30T09:45:56.105Z,97763.94
2023-04-30T09:48:25.728Z,97764.97
2023-04-30T09:50:54.132Z,97745.09
2023-04-30T09:53:23.889Z,97744.59
2023-04-30T09:55:53.351Z,97762.38
2023-04-30T09:58:24.554Z,97757.69
2023-04-30T10:00:55.230Z,97667.22
2023-04-30T10:03:25.163Z,97750.22
2023-04-30T10:05:54.281Z,97688.84
2023-04-30T10:08:28.538Z,97751.91
2023-04-30T10:11:00.619Z,97738.16
2023-04-30T10:13:33.599Z,97752.00
2023-04-30T10:16:08.938Z,97749.19
2023-04-30T10:18:40.995Z,97738.50
2023-04-30T10:21:14.339Z,97744.53
2023-04-30T10:23:43.916Z,97742.19
2023-04-30T10:26:12.539Z,97741.72
2023-04-30T10:28:43.395Z,97731.97
2023-04-30T10:31:12.434Z,97649.41
2023-04-30T10:33:50.044Z,97696.63
2023-04-30T10:36:27.271Z,97732.78
2023-04-30T10:38:56.519Z,97710.16
2023-04-30T10:41:25.686Z,97724.44
2023-04-30T10:43:59.486Z,97718.78
2023-04-30T10:46:30.232Z,97714.19
2023-04-30T10:49:00.320Z,97694.50
2023-04-30T10:51:46.649Z,97713.44
2023-04-30T10:54:18.909Z,97714.31
2023-04-30T10:56:48.733Z,97714.88
2023-04-30T10:59:18.363Z,97714.69
2023-04-30T11:02:02.805Z,97711.25
2023-04-30T11:04:31.474Z,97710.22
2023-04-30T11:07:17.240Z,97702.22
2023-04-30T11:09:46.494Z,97706.31
2023-04-30T11:12:16.490Z,97704.56
2023-04-30T11:14:47.260Z,97703.38
2023-04-30T11:17:23.793Z,97708.34
2023-04-30T11:19:53.655Z,97678.84
2023-04-30T11:22:24.657Z,97704.75
2023-04-30T11:25:04.026Z,97712.81
2023-04-30T11:27:33.520Z,97702.19
2023-04-30T11:30:04.975Z,97715.63
2023-04-30T11:32:37.491Z,97708.06
2023-04-30T11:35:07.459Z,97704.06
2023-04-30T11:37:37.768Z,97631.88
2023-04-30T11:40:08.850Z,97710.69
2023-04-30T11:42:37.150Z,97710.16
2023-04-30T11:45:09.096Z,97701.59
2023-04-30T11:47:44.283Z,97697.50
2023-04-30T11:50:14.335Z,97689.63
2023-04-30T11:52:43.596Z,97701.03
2023-04-30T11:55:16.703Z,97665.88
2023-04-30T11:57:46.697Z,97685.13
2023-04-30T12:00:18.122Z,97706.09
2023-04-30T12:02:48.206Z,97701.59
2023-04-30T12:05:18.163Z,97651.81
2023-04-30T12:07:48.353Z,97691.38
2023-04-30T12:10:16.852Z,97670.59
2023-04-30T12:12:46.230Z,97684.13
2023-04-30T12:15:23.416Z,97557.72
2023-04-30T12:17:52.133Z,97140.00
2023-04-30T12:22:54.366Z,97144.25
2023-04-30T12:28:04.475Z,97275.50
2023-04-30T12:30:34.345Z,97666.78
2023-04-30T12:33:03.868Z,97678.56
2023-04-30T12:35:32.931Z,97653.09
2023-04-30T12:46:29.795Z,97660.09
2023-04-30T13:02:25.588Z,97528.78
2023-04-30T13:04:54.513Z,97650.59
2023-04-30T13:07:23.263Z,97650.34
2023-04-30T13:09:51.508Z,97578.16
2023-04-30T13:12:20.249Z,97650.75
2023-04-30T13:14:48.459Z,97639.66
2023-04-30T13:19:59.525Z,97634.91
2023-04-30T13:39:58.069Z,97568.22
2023-04-30T14:01:29.251Z,97602.66
2023-04-30T14:03:57.487Z,97565.75
2023-04-30T14:06:25.748Z,97584.84
2023-04-30T14:08:54.063Z,97569.69
2023-04-30T14:11:23.502Z,97594.91
2023-04-30T14:13:51.667Z,97578.28
2023-04-30T14:16:21.097Z,97595.47
2023-04-30T14:18:50.825Z,97597.16
2023-04-30T14:21:19.155Z,97585.38
2023-04-30T14:23:47.711Z,97568.88
2023-04-30T14:26:16.517Z,97583.19
2023-04-30T14:28:44.751Z,97578.91
2023-04-30T14:31:13.027Z,97569.88
2023-04-30T14:33:41.331Z,97570.47
2023-04-30T14:36:11.261Z,97563.03
2023-04-30T14:38:39.470Z,97523.44
2023-04-30T14:41:07.723Z,97520.31
2023-04-30T14:43:35.920Z,97507.88
2023-04-30T14:46:04.248Z,97542.94
2023-04-30T14:48:32.876Z,97554.47
2023-04-30T14:51:01.403Z,97541.41
2023-04-30T14:53:31.141Z,97555.28
2023-04-30T14:55:59.359Z,97545.97
2023-04-30T14:58:27.735Z,97535.78
2023-04-30T15:00:56.210Z,97540.78
2023-04-30T15:03:24.628Z,97533.00
2023-04-30T15:05:52.966Z,97547.31
2023-04-30T15:08:21.144Z,97542.69
2023-04-30T15:10:50.851Z,97533.13
2023-04-30T15:13:19.136Z,97542.88
2023-04-30T15:15:49.854Z,97544.94
2023-04-30T15:18:18.200Z,97552.63
2023-04-30T15:20:47.250Z,97543.44
2023-04-30T15:23:15.705Z,97530.41
2023-04-30T15:25:44.332Z,97522.47
2023-04-30T15:28:14.079Z,97532.25
2023-04-30T15:30:43.091Z,97533.25
2023-04-30T15:33:12.618Z,97534.38
2023-04-30T15:35:41.769Z,97543.53
2023-04-30T15:38:10.084Z,97518.91
2023-04-30T15:40:38.605Z,97445.06
2023-04-30T15:43:07.938Z,97527.59
2023-04-30T15:45:37.577Z,97529.94
2023-04-30T15:48:06.344Z,97534.72
2023-04-30T15:50:34.650Z,97530.13
2023-04-30T15:53:03.039Z,97540.69
2023-04-30T15:55:31.379Z,97538.94
2023-04-30T15:57:59.642Z,97537.09
2023-04-30T16:00:28.880Z,97547.31
2023-04-30T16:02:58.641Z,97503.50
2023-04-30T16:05:27.069Z,97553.22
2023-04-30T16:07:55.730Z,97552.59
2023-04-30T16:10:24.014Z,97549.81
2023-04-30T16:12:52.551Z,97552.66
2023-04-30T16:15:20.785Z,97556.78
2023-04-30T16:17:49.095Z,97525.84
2023-04-30T16:20:19.227Z,97531.31
2023-04-30T16:22:48.298Z,97553.72
2023-04-30T16:25:16.702Z,97552.31
2023-04-30T16:27:45.477Z,97541.94
2023-04-30T16:30:14.136Z,97551.69
2023-04-30T16:32:42.525Z,97536.28
2023-04-30T16:35:11.368Z,97557.75
2023-04-30T16:37:40.999Z,97548.56
2023-04-30T16:40:10.060Z,97553.25
2023-04-30T16:42:38.266Z,97553.34
2023-04-30T16:45:07.357Z,97554.84
2023-04-30T16:47:35.595Z,97558.53
2023-04-30T16:50:03.926Z,97559.53
2023-04-30T16:52:33.273Z,97515.66
2023-04-30T16:55:03.507Z,97560.22
2023-04-30T16:57:31.956Z,97514.69
2023-04-30T17:00:00.258Z,97573.59
2023-04-30T17:02:28.548Z,97570.63
2023-04-30T17:04:57.759Z,97538.41
2023-04-30T17:07:25.886Z,97583.09
2023-04-30T17:09:54.659Z,97571.66
2023-04-30T17:12:24.895Z,97586.84
2023-04-30T17:14:53.348Z,97587.13
2023-04-30T17:17:21.474Z,97591.94
2023-04-30T17:19:49.572Z,97591.13
2023-04-30T17:22:20.224Z,97591.81
2023-04-30T17:24:48.597Z,97603.78
2023-04-30T17:27:16.973Z,97602.78
2023-04-30T17:29:46.615Z,97610.16
2023-04-30T17:32:17.667Z,97610.25
2023-04-30T17:34:45.947Z,97535.84
2023-04-30T17:37:14.102Z,97573.78
2023-04-30T17:39:42.255Z,97537.22
2023-04-30T17:42:10.528Z,97612.06
2023-04-30T17:44:38.800Z,97628.81
2023-04-30T17:47:08.394Z,97637.88
2023-04-30T17:49:36.738Z,97591.13
2023-04-30T17:52:06.410Z,97621.53
2023-04-30T17:54:34.921Z,97640.16
2023-04-30T17:57:03.499Z,97640.06
2023-04-30T17:59:32.127Z,97607.19
2023-04-30T18:02:00.445Z,97655.84
2023-04-30T18:04:30.352Z,97663.09
2023-04-30T18:06:58.573Z,97642.31
2023-04-30T18:09:26.991Z,97654.84
2023-04-30T18:11:56.359Z,97641.41
2023-04-30T18:14:26.239Z,97646.41
2023-04-30T18:16:54.847Z,97587.38
2023-04-30T18:19:23.166Z,97589.78
2023-04-30T18:21:53.271Z,97630.63
2023-04-30T18:27:12.334Z,97152.31
2023-04-30T18:29:41.993Z,97489.53
2023-04-30T18:32:10.384Z,97666.63
2023-04-30T18:34:38.946Z,97671.44
2023-04-30T18:37:08.618Z,97601.06
2023-04-30T18:39:36.893Z,97659.72
2023-04-30T18:42:05.233Z,97676.13
2023-04-30T18:44:33.577Z,97657.38
2023-04-30T18:47:01.863Z,97681.63
2023-04-30T18:49:30.173Z,97686.16
2023-04-30T18:51:59.632Z,97678.31
2023-04-30T18:54:29.402Z,97684.75
2023-04-30T18:56:57.666Z,97692.03
2023-04-30T18:59:27.695Z,97687.91
2023-04-30T19:01:56.077Z,97690.97
2023-04-30T19:04:24.424Z,97658.19
2023-04-30T19:06:54.595Z,97698.75
2023-04-30T19:09:22.964Z,97707.94
2023-04-30T19:11:53.286Z,97681.09
2023-04-30T19:14:21.582Z,97708.16
2023-04-30T19:16:49.963Z,97653.88
2023-04-30T19:19:18.262Z,97672.41
2023-04-30T19:21:46.675Z,97713.16
2023-04-30T19:24:15.087Z,97716.84
2023-04-30T19:26:43.682Z,97717.59
2023-04-30T19:29:13.379Z,97702.31
2023-04-30T19:31:41.789Z,97711.06
2023-04-30T19:34:10.274Z,97723.88
2023-04-30T19:36:38.595Z,97703.47
2023-04-30T19:39:10.297Z,97728.97
2023-04-30T19:41:38.576Z,97692.44
2023-04-30T19:44:08.022Z,97732.50
2023-04-30T19:46:37.841Z,97728.34
2023-04-30T19:49:08.501Z,97727.63
2023-04-30T19:51:36.859Z,97715.06
2023-04-30T19:54:05.144Z,97729.16
2023-04-30T19:56:33.429Z,97736.41
2023-04-30T19:59:01.658Z,97739.28
2023-04-30T20:01:29.995Z,97745.72
2023-04-30T20:03:59.942Z,97740.59
2023-04-30T20:06:28.605Z,97719.72
2023-04-30T20:08:59.869Z,97747.53
2023-04-30T20:11:28.243Z,97727.16
2023-04-30T20:13:56.996Z,97755.88
2023-04-30T20:16:25.656Z,97753.38
2023-04-30T20:18:53.905Z,97754.13
2023-04-30T20:21:25.073Z,97749.47
2023-04-30T20:23:53.270Z,97731.97
2023-04-30T20:26:21.913Z,97753.09
2023-04-30T20:28:50.026Z,97755.78
2023-04-30T20:31:18.432Z,97759.41
2023-04-30T20:33:47.174Z,97758.81
2023-04-30T20:36:15.935Z,97763.16
2023-04-30T20:38:45.650Z,97733.97
2023-04-30T20:41:13.919Z,97764.47
2023-04-30T20:43:42.659Z,97764.59
2023-04-30T20:46:13.955Z,97784.56
2023-04-30T20:48:42.093Z,97763.75
2023-04-30T20:51:10.917Z,97687.22
2023-04-30T20:53:39.215Z,97727.16
2023-04-30T20:56:08.957Z,97766.88
2023-04-30T20:58:37.209Z,97754.16
2023-04-30T21:01:05.494Z,97741.31
2023-04-30T21:03:33.824Z,97757.66
2023-04-30T21:06:02.286Z,97757.78
2023-04-30T21:08:30.672Z,97778.69
2023-04-30T21:10:58.983Z,97780.41
2023-04-30T21:13:28.791Z,97575.22
2023-04-30T21:15:57.840Z,97779.03
2023-04-30T21:18:27.749Z,97764.59
2023-04-30T21:21:02.727Z,97761.47
2023-04-30T21:23:31.141Z,97771.44
2023-04-30T21:25:59.363Z,97765.47
2023-04-30T21:28:29.054Z,97792.81
2023-04-30T21:30:57.313Z,97780.31
2023-04-30T21:33:25.519Z,97783.72
2023-04-30T21:35:53.680Z,97696.06
2023-04-30T21:38:21.797Z,97799.88
2023-04-30T21:40:50.117Z,97774.09
2023-04-30T21:43:18.808Z,97763.25
2023-04-30T21:45:48.396Z,97805.53
2023-04-30T21:48:17.373Z,97802.44
2023-04-30T21:50:46.856Z,97806.97
2023-04-30T21:53:16.119Z,97808.81
2023-04-30T21:55:44.345Z,97814.88
2023-04-30T21:58:13.357Z,97816.50
2023-04-30T22:00:41.653Z,97804.75
2023-04-30T22:03:11.573Z,97721.97
2023-04-30T22:05:40.011Z,97809.47
2023-04-30T22:08:08.157Z,97821.84
2023-04-30T22:10:36.511Z,97787.47
2023-04-30T22:13:04.696Z,97817.66
2023-04-30T22:15:47.071Z,97816.25
2023-04-30T22:18:18.009Z,97820.88
2023-04-30T22:20:46.259Z,97815.16
2023-04-30T22:23:14.366Z,97815.94
2023-04-30T22:25:42.950Z,97793.66
2023-04-30T22:28:11.671Z,97791.03
2023-04-30T22:30:40.261Z,97765.28
2023-04-30T22:33:08.551Z,97799.28
2023-04-30T22:35:39.306Z,97814.06
2023-04-30T22:38:08.305Z,97560.44
2023-04-30T22:40:47.244Z,97811.59
2023-04-30T22:43:16.767Z,97804.72
2023-04-30T22:45:47.886Z,97788.41
2023-04-30T22:48:19.613Z,97808.72
2023-04-30T22:50:50.801Z,97758.94
2023-04-30T22:53:19.760Z,97811.41
2023-04-30T22:55:49.186Z,97715.16
2023-04-30T22:58:18.280Z,97779.47
2023-04-30T23:00:51.449Z,97786.66
2023-04-30T23:03:20.231Z,97719.09
2023-04-30T23:05:55.689Z,97766.66
2023-04-30T23:08:26.652Z,97808.00
2023-04-30T23:10:56.056Z,97792.50
2023-04-30T23:13:27.620Z,97804.19
2023-04-30T23:15:58.928Z,97796.44
2023-04-30T23:18:27.227Z,97810.41
2023-04-30T23:20:59.051Z,97787.25
2023-04-30T23:23:27.977Z,97786.81
2023-04-30T23:25:56.719Z,97786.44
2023-04-30T23:28:25.591Z,97791.75
2023-04-30T23:30:54.616Z,97794.38
2023-04-30T23:33:23.442Z,97799.78
2023-04-30T23:35:53.549Z,97791.69
2023-04-30T23:38:23.532Z,97794.25
2023-04-30T23:40:51.713Z,97792.53
2023-04-30T23:43:19.949Z,97797.81
2023-04-30T23:45:48.141Z,97795.25
2023-04-30T23:48:16.352Z,97790.16
2023-04-30T23:50:44.586Z,97790.66
2023-04-30T23:53:12.782Z,97785.28
2023-04-30T23:55:43.768Z,97776.88
2023-04-30T23:58:11.901Z,97770.72
